sensor_id;sensor_type;location;lat;lon;timestamp;pressure;altitude;pressure_sealevel;temperature;humidity
35655;BME280;21773;50.010;19.972;2024-02-26T00:02:43;97813.22;;;13.14;100.00
35655;BME280;21773;50.010;19.972;2024-02-26T00:05:46;97808.06;;;13.12;100.00
35655;BME280;21773;50.010;19.972;2024-02-26T00:08:49;97807.44;;;13.10;100.00
35655;BME280;21773;50.010;19.972;2024-02-26T00:11:54;97810.69;;;13.07;100.00
35655;BME280;21773;50.010;19.972;2024-02-26T00:14:57;97817.44;;;12.99;100.00
35655;BME280;21773;50.010;19.972;2024-02-26T00:18:00;97816.31;;;12.95;100.00
35655;BME280;21773;50.010;19.972;2024-02-26T00:21:04;97806.03;;;12.92;100.00
35655;BME280;21773;50.010;19.972;2024-02-26T00:24:07;97809.81;;;12.91;100.00
35655;BME280;21773;50.010;19.972;2024-02-26T00:27:12;97795.16;;;12.82;100.00
35655;BME280;21773;50.010;19.972;2024-02-26T00:30:15;97799.78;;;12.87;100.00
35655;BME280;21773;50.010;19.972;2024-02-26T00:33:18;97769.41;;;12.70;100.00
35655;BME280;21773;50.010;19.972;2024-02-26T00:36:22;97798.94;;;12.81;100.00
35655;BME280;21773;50.010;19.972;2024-02-26T00:39:25;97800.03;;;12.80;100.00
35655;BME280;21773;50.010;19.972;2024-02-26T00:42:30;97790.22;;;12.69;100.00
35655;BME280;21773;50.010;19.972;2024-02-26T00:45:33;97783.19;;;12.68;100.00
35655;BME280;21773;50.010;19.972;2024-02-26T00:48:36;97794.59;;;12.75;100.00
35655;BME280;21773;50.010;19.972;2024-02-26T00:51:40;97784.81;;;12.69;100.00
35655;BME280;21773;50.010;19.972;2024-02-26T00:54:43;97783.16;;;12.63;100.00
35655;BME280;21773;50.010;19.972;2024-02-26T00:57:47;97770.09;;;12.50;100.00
35655;BME280;21773;50.010;19.972;2024-02-26T01:00:50;97761.94;;;12.40;100.00
35655;BME280;21773;50.010;19.972;2024-02-26T01:03:54;97789.53;;;12.47;100.00
35655;BME280;21773;50.010;19.972;2024-02-26T01:06:57;97783.84;;;12.43;100.00
35655;BME280;21773;50.010;19.972;2024-02-26T01:10:00;97784.09;;;12.42;100.00
35655;BME280;21773;50.010;19.972;2024-02-26T01:13:05;97779.75;;;12.36;100.00
35655;BME280;21773;50.010;19.972;2024-02-26T01:16:09;97770.22;;;12.28;100.00
35655;BME280;21773;50.010;19.972;2024-02-26T01:19:12;97775.34;;;12.25;100.00
35655;BME280;21773;50.010;19.972;2024-02-26T01:22:16;97782.34;;;12.21;100.00
35655;BME280;21773;50.010;19.972;2024-02-26T01:25:19;97777.34;;;12.07;100.00
35655;BME280;21773;50.010;19.972;2024-02-26T01:28:23;97789.50;;;12.05;100.00
35655;BME280;21773;50.010;19.972;2024-02-26T01:31:26;97788.06;;;11.97;100.00
35655;BME280;21773;50.010;19.972;2024-02-26T01:34:30;97786.13;;;11.93;100.00
35655;BME280;21773;50.010;19.972;2024-02-26T01:37:33;97788.78;;;11.88;100.00
35655;BME280;21773;50.010;19.972;2024-02-26T01:40:36;97780.63;;;11.78;100.00
35655;BME280;21773;50.010;19.972;2024-02-26T01:43:41;97789.50;;;11.78;100.00
35655;BME280;21773;50.010;19.972;2024-02-26T01:46:44;97787.63;;;11.79;100.00
35655;BME280;21773;50.010;19.972;2024-02-26T01:49:47;97775.88;;;11.63;100.00
35655;BME280;21773;50.010;19.972;2024-02-26T01:52:52;97793.31;;;11.77;100.00
35655;BME280;21773;50.010;19.972;2024-02-26T01:55:57;97795.19;;;11.77;100.00
35655;BME280;21773;50.010;19.972;2024-02-26T01:59:02;97798.63;;;11.72;100.00
35655;BME280;21773;50.010;19.972;2024-02-26T02:02:07;97769.38;;;11.37;100.00
35655;BME280;21773;50.010;19.972;2024-02-26T02:05:12;97794.28;;;11.44;100.00
35655;BME280;21773;50.010;19.972;2024-02-26T02:08:16;97785.31;;;11.39;100.00
35655;BME280;21773;50.010;19.972;2024-02-26T02:11:19;97787.69;;;11.35;100.00
35655;BME280;21773;50.010;19.972;2024-02-26T02:14:25;97780.31;;;11.25;100.00
35655;BME280;21773;50.010;19.972;2024-02-26T02:17:28;97786.53;;;11.26;100.00
35655;BME280;21773;50.010;19.972;2024-02-26T02:20:33;97788.34;;;11.20;100.00
35655;BME280;21773;50.010;19.972;2024-02-26T02:23:36;97792.94;;;11.20;100.00
35655;BME280;21773;50.010;19.972;2024-02-26T02:26:40;97799.84;;;11.11;100.00
35655;BME280;21773;50.010;19.972;2024-02-26T02:29:43;97797.06;;;11.06;100.00
35655;BME280;21773;50.010;19.972;2024-02-26T02:32:47;97800.03;;;11.04;100.00
35655;BME280;21773;50.010;19.972;2024-02-26T02:35:51;97793.00;;;11.03;100.00
35655;BME280;21773;50.010;19.972;2024-02-26T02:38:57;97795.13;;;11.01;100.00
35655;BME280;21773;50.010;19.972;2024-02-26T02:42:00;97793.25;;;11.02;100.00
35655;BME280;21773;50.010;19.972;2024-02-26T02:45:04;97793.00;;;11.03;100.00
35655;BME280;21773;50.010;19.972;2024-02-26T02:48:07;97797.34;;;11.04;100.00
35655;BME280;21773;50.010;19.972;2024-02-26T02:51:11;97802.16;;;11.02;100.00
35655;BME280;21773;50.010;19.972;2024-02-26T02:54:15;97801.59;;;11.00;100.00
35655;BME280;21773;50.010;19.972;2024-02-26T02:57:18;97805.63;;;10.98;100.00
35655;BME280;21773;50.010;19.972;2024-02-26T03:00:21;97810.34;;;10.91;100.00
35655;BME280;21773;50.010;19.972;2024-02-26T03:03:25;97803.84;;;10.86;100.00
35655;BME280;21773;50.010;19.972;2024-02-26T03:06:32;97807.28;;;10.82;100.00
35655;BME280;21773;50.010;19.972;2024-02-26T03:09:35;97798.81;;;10.73;100.00
35655;BME280;21773;50.010;19.972;2024-02-26T03:12:38;97797.34;;;10.66;100.00
35655;BME280;21773;50.010;19.972;2024-02-26T03:15:41;97798.38;;;10.60;100.00
35655;BME280;21773;50.010;19.972;2024-02-26T03:18:45;97795.59;;;10.55;100.00
35655;BME280;21773;50.010;19.972;2024-02-26T03:21:50;97789.56;;;10.48;100.00
35655;BME280;21773;50.010;19.972;2024-02-26T03:24:53;97774.97;;;10.27;100.00
35655;BME280;21773;50.010;19.972;2024-02-26T03:27:56;97783.88;;;10.27;100.00
35655;BME280;21773;50.010;19.972;2024-02-26T03:30:59;97777.38;;;10.12;100.00
35655;BME280;21773;50.010;19.972;2024-02-26T03:34:02;97779.72;;;10.20;100.00
35655;BME280;21773;50.010;19.972;2024-02-26T03:37:07;97781.91;;;10.23;100.00
35655;BME280;21773;50.010;19.972;2024-02-26T03:40:13;97786.81;;;10.26;100.00
35655;BME280;21773;50.010;19.972;2024-02-26T03:43:16;97778.16;;;10.24;100.00
35655;BME280;21773;50.010;19.972;2024-02-26T03:46:20;97767.69;;;10.11;100.00
35655;BME280;21773;50.010;19.972;2024-02-26T03:49:23;97768.50;;;9.94;100.00
35655;BME280;21773;50.010;19.972;2024-02-26T03:52:27;97770.81;;;9.86;100.00
35655;BME280;21773;50.010;19.972;2024-02-26T03:55:31;97778.78;;;9.81;100.00
35655;BME280;21773;50.010;19.972;2024-02-26T03:58:34;97779.25;;;9.78;100.00
35655;BME280;21773;50.010;19.972;2024-02-26T04:01:37;97766.31;;;9.75;100.00
35655;BME280;21773;50.010;19.972;2024-02-26T04:04:40;97761.88;;;9.69;100.00
35655;BME280;21773;50.010;19.972;2024-02-26T04:07:44;97766.44;;;9.68;100.00
35655;BME280;21773;50.010;19.972;2024-02-26T04:10:48;97765.88;;;9.66;100.00
35655;BME280;21773;50.010;19.972;2024-02-26T04:13:51;97752.81;;;9.58;100.00
35655;BME280;21773;50.010;19.972;2024-02-26T04:16:54;97755.41;;;9.53;100.00
35655;BME280;21773;50.010;19.972;2024-02-26T04:19:57;97746.38;;;9.42;100.00
35655;BME280;21773;50.010;19.972;2024-02-26T04:23:02;97750.75;;;9.48;100.00
35655;BME280;21773;50.010;19.972;2024-02-26T04:26:05;97750.22;;;9.46;100.00
35655;BME280;21773;50.010;19.972;2024-02-26T04:29:08;97742.59;;;9.43;100.00
35655;BME280;21773;50.010;19.972;2024-02-26T04:32:11;97744.25;;;9.44;100.00
35655;BME280;21773;50.010;19.972;2024-02-26T04:35:15;97744.59;;;9.48;100.00
35655;BME280;21773;50.010;19.972;2024-02-26T04:38:19;97750.22;;;9.46;100.00
35655;BME280;21773;50.010;19.972;2024-02-26T04:41:24;97750.44;;;9.45;100.00
35655;BME280;21773;50.010;19.972;2024-02-26T04:44:28;97747.44;;;9.41;100.00
35655;BME280;21773;50.010;19.972;2024-02-26T04:47:31;97731.69;;;9.33;100.00
35655;BME280;21773;50.010;19.972;2024-02-26T04:50:34;97736.25;;;9.33;100.00
35655;BME280;21773;50.010;19.972;2024-02-26T04:53:38;97738.34;;;9.31;100.00
35655;BME280;21773;50.010;19.972;2024-02-26T04:56:41;97753.44;;;9.32;100.00
35655;BME280;21773;50.010;19.972;2024-02-26T04:59:45;97750.31;;;9.23;100.00
35655;BME280;21773;50.010;19.972;2024-02-26T05:02:48;97746.47;;;9.19;100.00
35655;BME280;21773;50.010;19.972;2024-02-26T05:05:52;97739.50;;;9.06;100.00
35655;BME280;21773;50.010;19.972;2024-02-26T05:08:56;97745.91;;;9.17;100.00
35655;BME280;21773;50.010;19.972;2024-02-26T05:12:00;97754.91;;;9.11;100.00
35655;BME280;21773;50.010;19.972;2024-02-26T05:15:04;97759.47;;;9.10;100.00
35655;BME280;21773;50.010;19.972;2024-02-26T05:18:08;97757.59;;;9.11;100.00
35655;BME280;21773;50.010;19.972;2024-02-26T05:21:11;97757.13;;;9.14;100.00
35655;BME280;21773;50.010;19.972;2024-02-26T05:24:16;97745.94;;;9.05;100.00
35655;BME280;21773;50.010;19.972;2024-02-26T05:27:20;97755.25;;;9.14;100.00
35655;BME280;21773;50.010;19.972;2024-02-26T05:30:23;97758.09;;;9.08;100.00
35655;BME280;21773;50.010;19.972;2024-02-26T05:33:28;97765.16;;;8.97;100.00
35655;BME280;21773;50.010;19.972;2024-02-26T05:36:31;97730.75;;;8.71;100.00
35655;BME280;21773;50.010;19.972;2024-02-26T05:39:37;97761.88;;;8.95;100.00
35655;BME280;21773;50.010;19.972;2024-02-26T05:42:40;97772.38;;;8.97;100.00
35655;BME280;21773;50.010;19.972;2024-02-26T05:45:45;97772.00;;;9.05;100.00
35655;BME280;21773;50.010;19.972;2024-02-26T05:48:51;97781.00;;;9.10;100.00
35655;BME280;21773;50.010;19.972;2024-02-26T05:51:55;97748.44;;;8.95;100.00
35655;BME280;21773;50.010;19.972;2024-02-26T05:54:59;97786.91;;;9.24;100.00
35655;BME280;21773;50.010;19.972;2024-02-26T05:58:03;97785.84;;;9.25;100.00
35655;BME280;21773;50.010;19.972;2024-02-26T06:01:06;97792.38;;;9.29;100.00
35655;BME280;21773;50.010;19.972;2024-02-26T06:04:09;97791.66;;;9.34;100.00
35655;BME280;21773;50.010;19.972;2024-02-26T06:07:14;97783.22;;;9.42;100.00
35655;BME280;21773;50.010;19.972;2024-02-26T06:10:18;97777.03;;;9.58;100.00
35655;BME280;21773;50.010;19.972;2024-02-26T06:13:23;97774.69;;;9.78;100.00
35655;BME280;21773;50.010;19.972;2024-02-26T06:16:26;97772.53;;;9.92;100.00
35655;BME280;21773;50.010;19.972;2024-02-26T06:19:29;97771.59;;;10.03;100.00
35655;BME280;21773;50.010;19.972;2024-02-26T06:22:32;97779.84;;;10.13;100.00
35655;BME280;21773;50.010;19.972;2024-02-26T06:25:37;97782.81;;;10.28;100.00
35655;BME280;21773;50.010;19.972;2024-02-26T06:28:40;97782.53;;;10.47;100.00
35655;BME280;21773;50.010;19.972;2024-02-26T06:31:43;97789.53;;;10.64;100.00
35655;BME280;21773;50.010;19.972;2024-02-26T06:34:46;97793.22;;;10.80;100.00
35655;BME280;21773;50.010;19.972;2024-02-26T06:37:50;97811.63;;;11.05;100.00
35655;BME280;21773;50.010;19.972;2024-02-26T06:40:56;97794.88;;;11.24;100.00
35655;BME280;21773;50.010;19.972;2024-02-26T06:43:59;97795.81;;;11.35;100.00
35655;BME280;21773;50.010;19.972;2024-02-26T06:47:02;97801.66;;;11.27;100.00
35655;BME280;21773;50.010;19.972;2024-02-26T06:50:06;97808.94;;;11.26;100.00
35655;BME280;21773;50.010;19.972;2024-02-26T06:53:09;97802.06;;;11.41;100.00
35655;BME280;21773;50.010;19.972;2024-02-26T06:56:14;97810.91;;;11.85;100.00
35655;BME280;21773;50.010;19.972;2024-02-26T06:59:17;97815.97;;;12.08;100.00
35655;BME280;21773;50.010;19.972;2024-02-26T07:02:21;97816.63;;;12.20;100.00
35655;BME280;21773;50.010;19.972;2024-02-26T07:05:25;97814.50;;;12.27;100.00
35655;BME280;21773;50.010;19.972;2024-02-26T07:08:28;97812.72;;;12.38;100.00
35655;BME280;21773;50.010;19.972;2024-02-26T07:11:32;97820.94;;;12.53;100.00
35655;BME280;21773;50.010;19.972;2024-02-26T07:14:35;97811.28;;;12.67;100.00
35655;BME280;21773;50.010;19.972;2024-02-26T07:17:39;97824.03;;;12.72;100.00
35655;BME280;21773;50.010;19.972;2024-02-26T07:20:48;97806.69;;;12.68;100.00
35655;BME280;21773;50.010;19.972;2024-02-26T07:23:52;97821.34;;;12.77;100.00
35655;BME280;21773;50.010;19.972;2024-02-26T07:26:56;97820.34;;;12.88;100.00
35655;BME280;21773;50.010;19.972;2024-02-26T07:30:00;97820.94;;;13.00;100.00
35655;BME280;21773;50.010;19.972;2024-02-26T07:33:03;97819.72;;;13.18;100.00
35655;BME280;21773;50.010;19.972;2024-02-26T07:36:07;97823.03;;;13.40;100.00
35655;BME280;21773;50.010;19.972;2024-02-26T07:39:10;97817.13;;;13.53;100.00
35655;BME280;21773;50.010;19.972;2024-02-26T07:42:14;97819.09;;;13.73;100.00
35655;BME280;21773;50.010;19.972;2024-02-26T07:45:18;97808.53;;;13.76;100.00
35655;BME280;21773;50.010;19.972;2024-02-26T07:48:22;97815.00;;;13.75;100.00
35655;BME280;21773;50.010;19.972;2024-02-26T07:51:26;97823.41;;;13.84;100.00
35655;BME280;21773;50.010;19.972;2024-02-26T07:54:29;97799.31;;;13.98;100.00
35655;BME280;21773;50.010;19.972;2024-02-26T07:57:34;97788.78;;;13.96;100.00
35655;BME280;21773;50.010;19.972;2024-02-26T08:00:37;97810.47;;;14.16;100.00
35655;BME280;21773;50.010;19.972;2024-02-26T08:03:40;97810.19;;;14.23;100.00
35655;BME280;21773;50.010;19.972;2024-02-26T08:06:44;97812.63;;;14.24;100.00
35655;BME280;21773;50.010;19.972;2024-02-26T08:09:47;97815.09;;;14.36;100.00
35655;BME280;21773;50.010;19.972;2024-02-26T08:12:51;97805.56;;;14.69;100.00
35655;BME280;21773;50.010;19.972;2024-02-26T08:15:54;97806.75;;;17.07;100.00
35655;BME280;21773;50.010;19.972;2024-02-26T08:18:58;97815.66;;;20.40;100.00
35655;BME280;21773;50.010;19.972;2024-02-26T08:22:01;97810.72;;;24.32;100.00
35655;BME280;21773;50.010;19.972;2024-02-26T08:25:06;97819.75;;;26.72;87.38
35655;BME280;21773;50.010;19.972;2024-02-26T08:28:12;97817.16;;;27.23;78.27
35655;BME280;21773;50.010;19.972;2024-02-26T08:31:16;97808.50;;;27.24;78.57
35655;BME280;21773;50.010;19.972;2024-02-26T08:34:19;97817.69;;;28.45;73.05
35655;BME280;21773;50.010;19.972;2024-02-26T08:37:22;97816.69;;;28.92;69.97
35655;BME280;21773;50.010;19.972;2024-02-26T08:40:25;97822.66;;;28.55;70.44
35655;BME280;21773;50.010;19.972;2024-02-26T08:43:29;97817.63;;;28.07;71.22
35655;BME280;21773;50.010;19.972;2024-02-26T08:46:32;97816.16;;;28.48;71.37
35655;BME280;21773;50.010;19.972;2024-02-26T08:49:36;97805.81;;;30.30;64.90
35655;BME280;21773;50.010;19.972;2024-02-26T08:52:39;97797.34;;;32.22;60.25
35655;BME280;21773;50.010;19.972;2024-02-26T08:55:42;97804.34;;;35.35;51.17
35655;BME280;21773;50.010;19.972;2024-02-26T08:58:47;97791.75;;;38.03;44.08
35655;BME280;21773;50.010;19.972;2024-02-26T09:01:52;97794.00;;;40.08;39.48
35655;BME280;21773;50.010;19.972;2024-02-26T09:04:55;97784.06;;;41.53;37.29
35655;BME280;21773;50.010;19.972;2024-02-26T09:07:59;97779.66;;;42.33;34.02
35655;BME280;21773;50.010;19.972;2024-02-26T09:11:02;97774.94;;;42.74;31.19
35655;BME280;21773;50.010;19.972;2024-02-26T09:14:07;97776.31;;;42.13;32.76
35655;BME280;21773;50.010;19.972;2024-02-26T09:17:10;97772.09;;;41.49;32.89
35655;BME280;21773;50.010;19.972;2024-02-26T09:20:13;97774.13;;;40.56;34.19
35655;BME280;21773;50.010;19.972;2024-02-26T09:23:17;97773.78;;;39.32;36.35
35655;BME280;21773;50.010;19.972;2024-02-26T09:26:20;97776.78;;;37.63;39.36
35655;BME280;21773;50.010;19.972;2024-02-26T09:29:24;97778.34;;;35.82;40.83
35655;BME280;21773;50.010;19.972;2024-02-26T09:32:29;97782.25;;;34.85;44.63
35655;BME280;21773;50.010;19.972;2024-02-26T09:35:32;97769.41;;;33.62;47.84
35655;BME280;21773;50.010;19.972;2024-02-26T09:38:36;97780.94;;;32.10;50.47
35655;BME280;21773;50.010;19.972;2024-02-26T09:41:57;97776.03;;;30.31;57.08
35655;BME280;21773;50.010;19.972;2024-02-26T09:45:05;97774.94;;;29.07;61.62
35655;BME280;21773;50.010;19.972;2024-02-26T09:48:12;97768.19;;;28.24;66.36
35655;BME280;21773;50.010;19.972;2024-02-26T09:51:16;97774.91;;;28.65;68.31
35655;BME280;21773;50.010;19.972;2024-02-26T09:54:20;97768.53;;;29.26;66.54
35655;BME280;21773;50.010;19.972;2024-02-26T09:57:23;97780.06;;;30.33;63.76
35655;BME280;21773;50.010;19.972;2024-02-26T10:00:30;97777.56;;;31.79;59.36
35655;BME280;21773;50.010;19.972;2024-02-26T10:03:38;97753.03;;;33.21;55.00
35655;BME280;21773;50.010;19.972;2024-02-26T10:06:44;97782.22;;;36.67;47.87
35655;BME280;21773;50.010;19.972;2024-02-26T10:09:48;97777.41;;;40.10;40.21
35655;BME280;21773;50.010;19.972;2024-02-26T10:12:52;97775.81;;;42.93;34.92
35655;BME280;21773;50.010;19.972;2024-02-26T10:15:57;97770.38;;;44.42;29.26
35655;BME280;21773;50.010;19.972;2024-02-26T10:19:00;97758.78;;;45.57;27.54
35655;BME280;21773;50.010;19.972;2024-02-26T10:22:04;97755.19;;;46.86;28.27
35655;BME280;21773;50.010;19.972;2024-02-26T10:25:08;97754.69;;;47.52;27.30
35655;BME280;21773;50.010;19.972;2024-02-26T10:28:11;97756.47;;;48.51;27.04
35655;BME280;21773;50.010;19.972;2024-02-26T10:31:16;97744.84;;;49.49;24.92
35655;BME280;21773;50.010;19.972;2024-02-26T10:34:19;97751.09;;;50.01;24.13
35655;BME280;21773;50.010;19.972;2024-02-26T10:37:23;97745.56;;;50.73;24.30
35655;BME280;21773;50.010;19.972;2024-02-26T10:40:30;97740.63;;;50.79;21.79
35655;BME280;21773;50.010;19.972;2024-02-26T10:43:33;97741.63;;;50.54;22.58
35655;BME280;21773;50.010;19.972;2024-02-26T10:46:38;97740.69;;;50.03;21.90
35655;BME280;21773;50.010;19.972;2024-02-26T10:49:46;97734.34;;;50.58;23.83
35655;BME280;21773;50.010;19.972;2024-02-26T10:52:50;97729.28;;;50.14;23.17
35655;BME280;21773;50.010;19.972;2024-02-26T10:55:57;97733.88;;;49.90;22.36
35655;BME280;21773;50.010;19.972;2024-02-26T10:59:01;97727.47;;;48.63;22.79
35655;BME280;21773;50.010;19.972;2024-02-26T11:02:07;97723.84;;;48.37;22.39
35655;BME280;21773;50.010;19.972;2024-02-26T11:05:12;97707.38;;;47.46;23.43
35655;BME280;21773;50.010;19.972;2024-02-26T11:08:18;97705.66;;;47.54;24.20
35655;BME280;21773;50.010;19.972;2024-02-26T11:11:22;97701.63;;;45.69;24.19
35655;BME280;21773;50.010;19.972;2024-02-26T11:14:29;97716.00;;;44.67;25.07
35655;BME280;21773;50.010;19.972;2024-02-26T11:17:35;97701.97;;;45.62;24.46
35655;BME280;21773;50.010;19.972;2024-02-26T11:20:41;97703.31;;;44.26;25.24
35655;BME280;21773;50.010;19.972;2024-02-26T11:23:44;97678.81;;;43.47;26.47
35655;BME280;21773;50.010;19.972;2024-02-26T11:26:50;97703.25;;;44.44;25.47
35655;BME280;21773;50.010;19.972;2024-02-26T11:30:01;97696.84;;;46.29;25.93
35655;BME280;21773;50.010;19.972;2024-02-26T11:33:09;97690.22;;;45.69;25.07
35655;BME280;21773;50.010;19.972;2024-02-26T11:36:14;97702.03;;;44.00;26.85
35655;BME280;21773;50.010;19.972;2024-02-26T11:39:17;97693.66;;;43.78;26.85
35655;BME280;21773;50.010;19.972;2024-02-26T11:42:23;97683.72;;;43.83;26.89
35655;BME280;21773;50.010;19.972;2024-02-26T11:45:51;97681.41;;;42.09;27.96
35655;BME280;21773;50.010;19.972;2024-02-26T11:48:58;97692.94;;;39.58;31.25
35655;BME280;21773;50.010;19.972;2024-02-26T11:52:05;97675.59;;;37.60;34.13
35655;BME280;21773;50.010;19.972;2024-02-26T11:55:08;97691.28;;;36.27;37.84
35655;BME280;21773;50.010;19.972;2024-02-26T11:58:12;97692.03;;;35.11;39.90
35655;BME280;21773;50.010;19.972;2024-02-26T12:01:37;97691.78;;;34.12;43.03
35655;BME280;21773;50.010;19.972;2024-02-26T12:04:43;97702.34;;;33.69;44.96
35655;BME280;21773;50.010;19.972;2024-02-26T12:07:48;97687.53;;;33.65;46.75
35655;BME280;21773;50.010;19.972;2024-02-26T12:10:54;97692.78;;;33.31;46.13
35655;BME280;21773;50.010;19.972;2024-02-26T12:13:57;97681.88;;;32.37;47.31
35655;BME280;21773;50.010;19.972;2024-02-26T12:17:00;97686.38;;;33.55;48.31
35655;BME280;21773;50.010;19.972;2024-02-26T12:20:13;97668.97;;;35.41;44.58
35655;BME280;21773;50.010;19.972;2024-02-26T12:23:16;97670.50;;;37.08;39.91
35655;BME280;21773;50.010;19.972;2024-02-26T12:26:19;97684.78;;;38.07;37.57
35655;BME280;21773;50.010;19.972;2024-02-26T12:29:23;97689.41;;;37.94;36.60
35655;BME280;21773;50.010;19.972;2024-02-26T12:32:26;97691.69;;;36.56;39.17
35655;BME280;21773;50.010;19.972;2024-02-26T12:35:34;97682.88;;;35.07;41.57
35655;BME280;21773;50.010;19.972;2024-02-26T12:38:38;97674.81;;;33.67;47.28
35655;BME280;21773;50.010;19.972;2024-02-26T12:41:41;97680.00;;;32.77;48.10
35655;BME280;21773;50.010;19.972;2024-02-26T12:44:52;97681.72;;;32.02;51.09
35655;BME280;21773;50.010;19.972;2024-02-26T12:47:55;97681.75;;;31.40;52.00
35655;BME280;21773;50.010;19.972;2024-02-26T12:51:01;97682.72;;;30.67;53.77
35655;BME280;21773;50.010;19.972;2024-02-26T12:54:04;97686.72;;;29.73;56.52
35655;BME280;21773;50.010;19.972;2024-02-26T12:57:08;97687.44;;;28.91;59.94
35655;BME280;21773;50.010;19.972;2024-02-26T13:00:15;97680.94;;;28.18;64.36
35655;BME280;21773;50.010;19.972;2024-02-26T13:03:19;97683.50;;;27.53;66.11
35655;BME280;21773;50.010;19.972;2024-02-26T13:06:25;97678.56;;;26.65;71.29
35655;BME280;21773;50.010;19.972;2024-02-26T13:09:32;97677.69;;;26.05;75.80
35655;BME280;21773;50.010;19.972;2024-02-26T13:12:36;97697.34;;;25.88;77.94
35655;BME280;21773;50.010;19.972;2024-02-26T13:15:39;97700.75;;;25.57;79.13
35655;BME280;21773;50.010;19.972;2024-02-26T13:18:42;97690.19;;;25.23;80.56
35655;BME280;21773;50.010;19.972;2024-02-26T13:21:48;97677.75;;;24.80;82.83
35655;BME280;21773;50.010;19.972;2024-02-26T13:24:54;97702.22;;;24.70;90.79
35655;BME280;21773;50.010;19.972;2024-02-26T13:28:07;97706.31;;;24.51;88.97
35655;BME280;21773;50.010;19.972;2024-02-26T13:31:11;97693.31;;;24.40;89.39
35655;BME280;21773;50.010;19.972;2024-02-26T13:34:23;97697.19;;;24.27;90.25
35655;BME280;21773;50.010;19.972;2024-02-26T13:37:28;97685.84;;;24.07;93.98
35655;BME280;21773;50.010;19.972;2024-02-26T13:40:32;97691.91;;;23.80;95.69
35655;BME280;21773;50.010;19.972;2024-02-26T13:43:36;97694.06;;;23.54;97.93
35655;BME280;21773;50.010;19.972;2024-02-26T13:46:40;97702.19;;;23.42;95.39
35655;BME280;21773;50.010;19.972;2024-02-26T13:49:44;97715.44;;;23.19;100.00
35655;BME280;21773;50.010;19.972;2024-02-26T13:52:48;97710.41;;;22.92;100.00
35655;BME280;21773;50.010;19.972;2024-02-26T13:55:55;97705.47;;;21.95;100.00
35655;BME280;21773;50.010;19.972;2024-02-26T13:59:00;97713.38;;;21.97;100.00
35655;BME280;21773;50.010;19.972;2024-02-26T14:02:03;97717.22;;;21.53;100.00
35655;BME280;21773;50.010;19.972;2024-02-26T14:05:07;97730.75;;;21.01;100.00
35655;BME280;21773;50.010;19.972;2024-02-26T14:08:11;97730.59;;;20.98;100.00
35655;BME280;21773;50.010;19.972;2024-02-26T14:11:15;97720.56;;;20.54;100.00
35655;BME280;21773;50.010;19.972;2024-02-26T14:14:18;97729.69;;;20.71;100.00
35655;BME280;21773;50.010;19.972;2024-02-26T14:17:21;97726.19;;;20.88;100.00
35655;BME280;21773;50.010;19.972;2024-02-26T14:20:25;97719.75;;;20.84;100.00
35655;BME280;21773;50.010;19.972;2024-02-26T14:23:30;97720.78;;;21.05;100.00
35655;BME280;21773;50.010;19.972;2024-02-26T14:26:33;97715.31;;;21.05;100.00
35655;BME280;21773;50.010;19.972;2024-02-26T14:29:37;97723.75;;;20.78;100.00
35655;BME280;21773;50.010;19.972;2024-02-26T14:32:41;97722.69;;;20.57;100.00
35655;BME280;21773;50.010;19.972;2024-02-26T14:35:46;97736.78;;;20.42;100.00
35655;BME280;21773;50.010;19.972;2024-02-26T14:38:51;97713.91;;;20.24;100.00
35655;BME280;21773;50.010;19.972;2024-02-26T14:41:54;97739.84;;;20.04;100.00
35655;BME280;21773;50.010;19.972;2024-02-26T14:44:58;97744.91;;;19.53;100.00
35655;BME280;21773;50.010;19.972;2024-02-26T14:48:01;97741.53;;;19.42;100.00
35655;BME280;21773;50.010;19.972;2024-02-26T14:51:05;97745.31;;;19.46;100.00
35655;BME280;21773;50.010;19.972;2024-02-26T14:54:10;97757.13;;;19.55;100.00
35655;BME280;21773;50.010;19.972;2024-02-26T14:57:14;97699.28;;;19.12;100.00
35655;BME280;21773;50.010;19.972;2024-02-26T15:00:20;97753.81;;;19.31;100.00
35655;BME280;21773;50.010;19.972;2024-02-26T15:03:23;97748.78;;;19.24;100.00
35655;BME280;21773;50.010;19.972;2024-02-26T15:06:26;97745.22;;;19.24;100.00
35655;BME280;21773;50.010;19.972;2024-02-26T15:09:31;97751.50;;;19.24;100.00
35655;BME280;21773;50.010;19.972;2024-02-26T15:12:34;97759.69;;;19.24;100.00
35655;BME280;21773;50.010;19.972;2024-02-26T15:15:37;97765.88;;;19.30;100.00
35655;BME280;21773;50.010;19.972;2024-02-26T15:18:41;97766.06;;;19.33;100.00
35655;BME280;21773;50.010;19.972;2024-02-26T15:21:44;97752.72;;;19.18;100.00
35655;BME280;21773;50.010;19.972;2024-02-26T15:24:49;97759.59;;;19.02;100.00
35655;BME280;21773;50.010;19.972;2024-02-26T15:27:52;97751.72;;;19.00;100.00
35655;BME280;21773;50.010;19.972;2024-02-26T15:30:55;97763.84;;;18.94;100.00
35655;BME280;21773;50.010;19.972;2024-02-26T15:33:58;97768.41;;;18.85;100.00
35655;BME280;21773;50.010;19.972;2024-02-26T15:37:02;97767.47;;;18.76;100.00
35655;BME280;21773;50.010;19.972;2024-02-26T15:40:08;97764.94;;;18.66;100.00
35655;BME280;21773;50.010;19.972;2024-02-26T15:43:12;97760.88;;;18.31;100.00
35655;BME280;21773;50.010;19.972;2024-02-26T15:46:17;97777.34;;;18.26;100.00
35655;BME280;21773;50.010;19.972;2024-02-26T15:49:20;97776.47;;;18.12;100.00
35655;BME280;21773;50.010;19.972;2024-02-26T15:52:23;97769.47;;;18.06;100.00
35655;BME280;21773;50.010;19.972;2024-02-26T15:55:28;97788.00;;;17.90;100.00
35655;BME280;21773;50.010;19.972;2024-02-26T15:58:31;97785.47;;;17.94;100.00